Nekoma, North Dakota
Current Conditions -  °F | °C
As of 2:35 PM on Tuesday 25 Nov 2014 (Local Time) from KD55 Reporting Station
Overcast Overcast  
Wind Chill:   Ceiling: 1400
Heat Index: 18°   Visibility: 10mi
Dew Point: 12°   Wind: 14mph
Humidity: 79%   Direction: 90°E
Pressure: 29.87"   Gusts: NA
Location:  48.58°N, 98.37°W
Report Text: KD55 252035Z AUTO 09012KT 10SM OVC014 M08/M11 A2987 RMK AO2
Loading
Personal Weather Stations






























Interactive Weather Map New forecast layout! Learn more

10-Day Weather Forecast

Advertisements
Track Severe Weather on mobile